createdAt,value
2018-09-25T00:00:26.929Z,1024.66
2018-09-25T00:01:26.875Z,1024.63
2018-09-25T00:02:26.847Z,1024.63
2018-09-25T00:03:26.769Z,1024.65
2018-09-25T00:04:26.723Z,1024.66
2018-09-25T00:05:26.658Z,1024.64
2018-09-25T00:06:26.602Z,1024.66
2018-09-25T00:07:26.575Z,1024.65
2018-09-25T00:08:26.495Z,1024.62
2018-09-25T00:09:26.437Z,1024.60
2018-09-25T00:10:26.420Z,1024.64
2018-09-25T00:11:26.333Z,1024.61
2018-09-25T00:12:26.310Z,1024.62
2018-09-25T00:13:26.223Z,1024.60
2018-09-25T00:14:26.166Z,1024.63
2018-09-25T00:15:26.116Z,1024.60
2018-09-25T00:16:26.060Z,1024.61
2018-09-25T00:17:26.032Z,1024.60
2018-09-25T00:18:25.953Z,1024.63
2018-09-25T00:19:25.899Z,1024.61
2018-09-25T00:20:25.844Z,1024.59
2018-09-25T00:21:25.786Z,1024.59
2018-09-25T00:22:25.761Z,1024.60
2018-09-25T00:23:25.681Z,1024.60
2018-09-25T00:24:25.628Z,1024.57
2018-09-25T00:25:25.570Z,1024.59
2018-09-25T00:26:25.516Z,1024.61
2018-09-25T00:27:25.488Z,1024.63
2018-09-25T00:28:25.420Z,1024.62
2018-09-25T00:29:25.351Z,1024.64
2018-09-25T00:30:25.300Z,1024.68
2018-09-25T00:31:25.248Z,1024.65
2018-09-25T00:32:25.216Z,1024.67
2018-09-25T00:33:25.138Z,1024.72
2018-09-25T00:34:25.078Z,1024.65
2018-09-25T00:35:25.033Z,1024.70
2018-09-25T00:36:24.970Z,1024.73
2018-09-25T00:37:24.963Z,1024.72
2018-09-25T00:38:24.861Z,1024.75
2018-09-25T00:39:24.807Z,1024.74
2018-09-25T00:40:24.757Z,1024.75
2018-09-25T00:41:24.701Z,1024.73
2018-09-25T00:42:24.646Z,1024.73
2018-09-25T00:43:24.615Z,1024.74
2018-09-25T00:44:24.539Z,1024.76
2018-09-25T00:45:24.485Z,1024.75
2018-09-25T00:46:24.427Z,1024.78
2018-09-25T00:47:24.372Z,1024.75
2018-09-25T00:48:24.343Z,1024.73
2018-09-25T00:49:24.262Z,1024.76
2018-09-25T00:50:24.215Z,1024.74
2018-09-25T00:51:24.156Z,1024.75
2018-09-25T00:52:24.103Z,1024.74
2018-09-25T00:53:24.080Z,1024.78
2018-09-25T00:54:23.993Z,1024.82
2018-09-25T00:55:23.942Z,1024.79
2018-09-25T00:56:23.883Z,1024.82
2018-09-25T00:57:23.832Z,1024.83
2018-09-25T00:58:23.806Z,1024.79
2018-09-25T00:59:23.717Z,1024.88
2018-09-25T01:00:23.668Z,1024.89
2018-09-25T01:01:23.614Z,1024.86
2018-09-25T01:02:23.554Z,1024.86
2018-09-25T01:03:23.529Z,1024.83
2018-09-25T01:04:23.446Z,1024.84
2018-09-25T01:05:23.396Z,1024.83
2018-09-25T01:06:23.339Z,1024.85
2018-09-25T01:07:23.295Z,1024.91
2018-09-25T01:08:23.265Z,1024.90
2018-09-25T01:09:23.173Z,1024.89
2018-09-25T01:10:23.123Z,1024.95
2018-09-25T01:11:23.067Z,1025.01
2018-09-25T01:12:23.009Z,1025.01
2018-09-25T01:13:22.956Z,1025.01
2018-09-25T01:14:22.923Z,1025.02
2018-09-25T01:15:22.851Z,1025.05
2018-09-25T01:16:22.794Z,1025.06
2018-09-25T01:17:22.738Z,1025.05
2018-09-25T01:18:22.683Z,1025.04
2018-09-25T01:19:22.651Z,1025.08
2018-09-25T01:20:22.581Z,1025.10
2018-09-25T01:21:22.517Z,1025.08
2018-09-25T01:22:22.466Z,1025.08
2018-09-25T01:23:22.415Z,1025.08
2018-09-25T01:24:22.382Z,1025.10
2018-09-25T01:25:22.303Z,1025.10
2018-09-25T01:26:22.247Z,1025.07
2018-09-25T01:27:22.196Z,1025.08
2018-09-25T01:28:22.137Z,1025.13
2018-09-25T01:29:22.105Z,1025.14
2018-09-25T01:30:22.031Z,1025.12
2018-09-25T01:31:21.970Z,1025.15
2018-09-25T01:32:21.924Z,1025.13
2018-09-25T01:33:21.863Z,1025.14
2018-09-25T01:34:21.836Z,1025.16
2018-09-25T01:35:21.760Z,1025.19
2018-09-25T01:36:21.703Z,1025.16
2018-09-25T01:37:21.651Z,1025.15
2018-09-25T01:38:21.593Z,1025.18
2018-09-25T01:39:21.564Z,1025.18
2018-09-25T01:40:21.483Z,1025.24
2018-09-25T01:41:21.431Z,1025.25
2018-09-25T01:42:21.376Z,1025.24
2018-09-25T01:43:21.317Z,1025.27
2018-09-25T01:44:21.289Z,1025.26
2018-09-25T01:45:21.209Z,1025.26
2018-09-25T01:46:21.157Z,1025.21
2018-09-25T01:47:21.097Z,1025.26
2018-09-25T01:48:21.042Z,1025.23
2018-09-25T01:49:21.015Z,1025.27
2018-09-25T01:50:20.936Z,1025.23
2018-09-25T01:51:20.879Z,1025.26
2018-09-25T01:52:20.828Z,1025.22
2018-09-25T01:53:20.773Z,1025.23
2018-09-25T01:54:20.774Z,1025.17
2018-09-25T01:55:20.667Z,1025.21
2018-09-25T01:56:20.609Z,1025.22
2018-09-25T01:57:20.553Z,1025.19
2018-09-25T01:58:20.499Z,1025.16
2018-09-25T01:59:20.446Z,1025.18
2018-09-25T02:00:20.411Z,1025.17
2018-09-25T02:01:20.340Z,1025.15
2018-09-25T02:02:20.280Z,1025.15
2018-09-25T02:03:20.225Z,1025.12
2018-09-25T02:04:20.174Z,1025.12
2018-09-25T02:05:20.137Z,1025.13
2018-09-25T02:06:20.065Z,1025.16
2018-09-25T02:07:20.007Z,1025.17
2018-09-25T02:08:19.953Z,1025.21
2018-09-25T02:09:19.906Z,1025.19
2018-09-25T02:10:19.866Z,1025.19
2018-09-25T02:11:19.792Z,1025.20
2018-09-25T02:12:19.735Z,1025.19
2018-09-25T02:13:19.691Z,1025.21
2018-09-25T02:14:19.638Z,1025.24
2018-09-25T02:15:19.593Z,1025.23
2018-09-25T02:16:19.521Z,1025.25
2018-09-25T02:17:19.463Z,1025.21
2018-09-25T02:18:19.410Z,1025.24
2018-09-25T02:19:19.352Z,1025.24
2018-09-25T02:20:19.318Z,1025.26
2018-09-25T02:21:19.243Z,1025.28
2018-09-25T02:22:19.192Z,1025.29
2018-09-25T02:23:19.137Z,1025.28
2018-09-25T02:24:19.081Z,1025.28
2018-09-25T02:25:19.046Z,1025.25
2018-09-25T02:26:18.971Z,1025.26
2018-09-25T02:27:18.916Z,1025.26
2018-09-25T02:28:18.861Z,1025.24
2018-09-25T02:29:18.808Z,1025.24
2018-09-25T02:30:18.796Z,1025.25
2018-09-25T02:31:18.699Z,1025.24
2018-09-25T02:32:18.643Z,1025.23
2018-09-25T02:33:18.590Z,1025.25
2018-09-25T02:34:18.535Z,1025.19
2018-09-25T02:35:18.488Z,1025.25
2018-09-25T02:36:18.457Z,1025.23
2018-09-25T02:37:18.381Z,1025.21
2018-09-25T02:38:18.322Z,1025.23
2018-09-25T02:39:18.262Z,1025.23
2018-09-25T02:40:18.207Z,1025.23
2018-09-25T02:41:18.179Z,1025.25
2018-09-25T02:42:18.099Z,1025.27
2018-09-25T02:43:18.051Z,1025.27
2018-09-25T02:44:17.991Z,1025.24
2018-09-25T02:45:17.943Z,1025.30
2018-09-25T02:46:17.907Z,1025.34
2018-09-25T02:47:17.830Z,1025.33
2018-09-25T02:48:17.775Z,1025.33
2018-09-25T02:49:17.719Z,1025.33
2018-09-25T02:50:17.666Z,1025.27
2018-09-25T02:51:17.635Z,1025.27
2018-09-25T02:52:17.558Z,1025.27
2018-09-25T02:53:17.504Z,1025.29
2018-09-25T02:54:17.451Z,1025.26
2018-09-25T02:55:17.397Z,1025.28
2018-09-25T02:56:17.365Z,1025.27
2018-09-25T02:57:17.288Z,1025.27
2018-09-25T02:58:17.232Z,1025.24
2018-09-25T02:59:17.182Z,1025.29
2018-09-25T03:00:17.127Z,1025.30
2018-09-25T03:01:17.095Z,1025.26
2018-09-25T03:02:17.014Z,1025.28
2018-09-25T03:03:16.974Z,1025.29
2018-09-25T03:04:16.911Z,1025.31
2018-09-25T03:05:16.854Z,1025.36
2018-09-25T03:06:16.834Z,1025.32
2018-09-25T03:07:16.743Z,1025.38
2018-09-25T03:08:16.689Z,1025.36
2018-09-25T03:09:16.639Z,1025.37
2018-09-25T03:10:16.578Z,1025.40
2018-09-25T03:11:16.529Z,1025.44
2018-09-25T03:12:16.495Z,1025.46
2018-09-25T03:13:16.416Z,1025.47
2018-09-25T03:14:16.365Z,1025.43
2018-09-25T03:15:16.365Z,1025.42
2018-09-25T03:16:16.270Z,1025.37
2018-09-25T03:17:16.228Z,1025.35
2018-09-25T03:18:16.150Z,1025.31
2018-09-25T03:19:16.162Z,1025.31
2018-09-25T03:20:16.040Z,1025.35
2018-09-25T03:21:15.985Z,1025.33
2018-09-25T03:22:15.958Z,1025.37
2018-09-25T03:23:15.874Z,1025.32
2018-09-25T03:24:15.826Z,1025.35
2018-09-25T03:25:15.769Z,1025.33
2018-09-25T03:26:15.714Z,1025.35
2018-09-25T03:27:15.690Z,1025.36
2018-09-25T03:28:15.607Z,1025.37
2018-09-25T03:29:15.555Z,1025.36
2018-09-25T03:30:15.502Z,1025.41
2018-09-25T03:31:15.447Z,1025.41
2018-09-25T03:32:15.415Z,1025.43
2018-09-25T03:33:15.338Z,1025.45
2018-09-25T03:34:15.286Z,1025.47
2018-09-25T03:35:15.229Z,1025.40
2018-09-25T03:36:15.179Z,1025.44
2018-09-25T03:37:15.145Z,1025.41
2018-09-25T03:38:15.073Z,1025.41
2018-09-25T03:39:15.016Z,1025.43
2018-09-25T03:40:14.962Z,1025.45
2018-09-25T03:41:14.908Z,1025.44
2018-09-25T03:42:14.886Z,1025.44
2018-09-25T03:43:14.803Z,1025.43
2018-09-25T03:44:14.749Z,1025.40
2018-09-25T03:45:14.692Z,1025.40
2018-09-25T03:46:14.645Z,1025.43
2018-09-25T03:47:14.622Z,1025.42
2018-09-25T03:48:14.531Z,1025.42
2018-09-25T03:49:14.483Z,1025.37
2018-09-25T03:50:14.421Z,1025.38
2018-09-25T03:51:14.369Z,1025.40
2018-09-25T03:52:14.320Z,1025.36
2018-09-25T03:53:14.286Z,1025.42
2018-09-25T03:54:14.207Z,1025.43
2018-09-25T03:55:14.161Z,1025.40
2018-09-25T03:56:14.102Z,1025.43
2018-09-25T03:57:14.047Z,1025.42
2018-09-25T03:58:14.023Z,1025.48
2018-09-25T03:59:13.937Z,1025.45
2018-09-25T04:00:13.890Z,1025.49
2018-09-25T04:01:13.832Z,1025.49
2018-09-25T04:02:13.778Z,1025.50
2018-09-25T04:03:13.747Z,1025.49
2018-09-25T04:04:13.670Z,1025.47
2018-09-25T04:05:13.616Z,1025.48
2018-09-25T04:06:13.631Z,1025.54
2018-09-25T04:07:13.509Z,1025.52
2018-09-25T04:08:13.482Z,1025.54
2018-09-25T04:09:13.400Z,1025.55
2018-09-25T04:10:13.349Z,1025.57
2018-09-25T04:11:13.293Z,1025.62
2018-09-25T04:12:13.239Z,1025.58
2018-09-25T04:13:13.214Z,1025.60
2018-09-25T04:14:13.163Z,1025.61
2018-09-25T04:15:13.078Z,1025.65
2018-09-25T04:16:13.024Z,1025.66
2018-09-25T04:17:12.968Z,1025.69
2018-09-25T04:18:12.947Z,1025.71
2018-09-25T04:19:12.869Z,1025.69
2018-09-25T04:20:12.824Z,1025.72
2018-09-25T04:21:12.757Z,1025.70
2018-09-25T04:22:12.702Z,1025.72
2018-09-25T04:23:12.689Z,1025.73
2018-09-25T04:24:12.597Z,1025.74
2018-09-25T04:25:12.545Z,1025.77
2018-09-25T04:26:12.490Z,1025.78
2018-09-25T04:27:12.436Z,1025.76
2018-09-25T04:28:12.438Z,1025.80
2018-09-25T04:29:12.350Z,1025.80
2018-09-25T04:30:12.277Z,1025.84
2018-09-25T04:31:12.222Z,1025.88
2018-09-25T04:32:12.165Z,1025.91
2018-09-25T04:33:12.116Z,1025.93
2018-09-25T04:34:12.084Z,1025.93
2018-09-25T04:35:12.006Z,1025.95
2018-09-25T04:36:11.950Z,1025.97
2018-09-25T04:37:11.924Z,1025.93
2018-09-25T04:38:11.863Z,1025.94
2018-09-25T04:39:11.813Z,1025.96
2018-09-25T04:40:11.744Z,1025.98
2018-09-25T04:41:11.682Z,1025.96
2018-09-25T04:42:11.649Z,1026.01
2018-09-25T04:43:11.577Z,1025.94
2018-09-25T04:44:11.549Z,1025.97
2018-09-25T04:45:11.468Z,1026.00
2018-09-25T04:46:11.413Z,1026.04
2018-09-25T04:47:11.362Z,1026.00
2018-09-25T04:48:11.308Z,1025.97
2018-09-25T04:49:11.280Z,1025.95
2018-09-25T04:50:11.200Z,1025.94
2018-09-25T04:51:11.151Z,1025.94
2018-09-25T04:52:11.094Z,1025.94
2018-09-25T04:53:11.044Z,1025.97
2018-09-25T04:54:11.010Z,1025.96
2018-09-25T04:55:10.929Z,1025.96
2018-09-25T04:56:10.876Z,1025.99
2018-09-25T04:57:10.901Z,1025.98
2018-09-25T04:58:10.768Z,1025.97
2018-09-25T04:59:10.743Z,1025.96
2018-09-25T05:00:10.664Z,1025.92
2018-09-25T05:01:10.609Z,1025.92
2018-09-25T05:02:10.556Z,1025.92
2018-09-25T05:03:10.498Z,1025.89
2018-09-25T05:04:10.468Z,1025.92
2018-09-25T05:05:10.394Z,1025.89
2018-09-25T05:06:10.341Z,1025.92
2018-09-25T05:07:10.286Z,1025.98
2018-09-25T05:08:10.237Z,1025.97
2018-09-25T05:09:10.218Z,1026.00
2018-09-25T05:10:10.127Z,1026.05
2018-09-25T05:11:10.076Z,1026.05
2018-09-25T05:12:10.062Z,1026.05
2018-09-25T05:13:09.967Z,1026.06
2018-09-25T05:14:09.914Z,1026.09
2018-09-25T05:15:09.885Z,1026.09
2018-09-25T05:16:09.804Z,1026.12
2018-09-25T05:17:09.752Z,1026.10
2018-09-25T05:18:09.712Z,1026.14
2018-09-25T05:19:09.643Z,1026.08
2018-09-25T05:20:09.614Z,1026.12
2018-09-25T05:21:09.538Z,1026.11
2018-09-25T05:22:09.485Z,1026.10
2018-09-25T05:23:09.429Z,1026.11
2018-09-25T05:24:09.375Z,1026.11
2018-09-25T05:25:09.346Z,1026.09
2018-09-25T05:26:09.281Z,1026.11
2018-09-25T05:27:09.215Z,1026.08
2018-09-25T05:28:09.159Z,1026.08
2018-09-25T05:29:09.111Z,1026.06
2018-09-25T05:30:09.073Z,1026.08
2018-09-25T05:31:09.004Z,1026.11
2018-09-25T05:32:08.955Z,1026.06
2018-09-25T05:33:08.897Z,1026.05
2018-09-25T05:34:08.840Z,1026.09
2018-09-25T05:35:08.810Z,1026.05
2018-09-25T05:36:08.731Z,1026.08
2018-09-25T05:37:08.678Z,1026.07
2018-09-25T05:38:08.625Z,1026.09
2018-09-25T05:39:08.578Z,1026.09
2018-09-25T05:40:08.546Z,1026.12
2018-09-25T05:41:08.469Z,1026.10
2018-09-25T05:42:08.415Z,1026.12
2018-09-25T05:43:08.359Z,1026.12
2018-09-25T05:44:08.313Z,1026.16
2018-09-25T05:45:08.273Z,1026.14
2018-09-25T05:46:08.197Z,1026.20
2018-09-25T05:47:08.145Z,1026.18
2018-09-25T05:48:08.131Z,1026.22
2018-09-25T05:49:08.092Z,1026.24
2018-09-25T05:50:08.012Z,1026.21
2018-09-25T05:51:07.931Z,1026.21
2018-09-25T05:52:07.878Z,1026.24
2018-09-25T05:53:07.823Z,1026.23
2018-09-25T05:54:07.773Z,1026.21
2018-09-25T05:55:07.740Z,1026.24
2018-09-25T05:56:07.673Z,1026.25
2018-09-25T05:57:07.613Z,1026.23
2018-09-25T05:58:07.561Z,1026.25
2018-09-25T05:59:07.508Z,1026.25
2018-09-25T06:00:07.499Z,1026.25
2018-09-25T06:01:07.405Z,1026.24
2018-09-25T06:02:07.346Z,1026.26
2018-09-25T06:03:07.287Z,1026.23
2018-09-25T06:04:07.237Z,1026.24
2018-09-25T06:05:07.188Z,1026.25
2018-09-25T06:06:07.154Z,1026.21
2018-09-25T06:07:07.079Z,1026.24
2018-09-25T06:08:07.027Z,1026.27
2018-09-25T06:09:07.018Z,1026.23
2018-09-25T06:10:06.919Z,1026.32
2018-09-25T06:11:06.894Z,1026.32
2018-09-25T06:12:06.811Z,1026.34
2018-09-25T06:13:06.756Z,1026.34
2018-09-25T06:14:06.707Z,1026.36
2018-09-25T06:15:06.653Z,1026.35
2018-09-25T06:16:06.621Z,1026.36
2018-09-25T06:17:06.547Z,1026.42
2018-09-25T06:18:06.491Z,1026.39
2018-09-25T06:19:06.439Z,1026.44
2018-09-25T06:20:06.386Z,1026.46
2018-09-25T06:21:06.350Z,1026.45
2018-09-25T06:22:06.277Z,1026.48
2018-09-25T06:23:06.297Z,1026.50
2018-09-25T06:24:06.180Z,1026.55
2018-09-25T06:25:06.119Z,1026.57
2018-09-25T06:26:06.098Z,1026.54
2018-09-25T06:27:06.018Z,1026.53
2018-09-25T06:28:05.965Z,1026.48
2018-09-25T06:29:05.907Z,1026.46
2018-09-25T06:30:05.852Z,1026.46
2018-09-25T06:31:05.826Z,1026.51
2018-09-25T06:32:05.746Z,1026.55
2018-09-25T06:33:05.692Z,1026.54
2018-09-25T06:34:05.642Z,1026.57
2018-09-25T06:35:05.603Z,1026.59
2018-09-25T06:36:05.556Z,1026.58
2018-09-25T06:37:05.502Z,1026.59
2018-09-25T06:38:05.430Z,1026.58
2018-09-25T06:39:05.374Z,1026.61
2018-09-25T06:40:05.320Z,1026.65
2018-09-25T06:41:05.298Z,1026.61
2018-09-25T06:42:05.217Z,1026.67
2018-09-25T06:43:05.161Z,1026.69
2018-09-25T06:44:05.109Z,1026.69
2018-09-25T06:45:05.054Z,1026.69
2018-09-25T06:46:05.004Z,1026.71
2018-09-25T06:47:05.009Z,1026.71
2018-09-25T06:48:04.901Z,1026.75
2018-09-25T06:49:04.845Z,1026.78
2018-09-25T06:50:04.789Z,1026.78
2018-09-25T06:51:04.738Z,1026.76
2018-09-25T06:52:04.708Z,1026.79
2018-09-25T06:53:04.630Z,1026.77
2018-09-25T06:54:04.577Z,1026.80
2018-09-25T06:55:04.625Z,1026.83
2018-09-25T06:56:04.470Z,1026.78
2018-09-25T06:57:04.444Z,1026.82
2018-09-25T06:58:04.365Z,1026.84
2018-09-25T06:59:04.315Z,1026.85
2018-09-25T07:00:04.260Z,1026.87
2018-09-25T07:01:04.274Z,1026.91
2018-09-25T07:02:04.180Z,1026.92
2018-09-25T07:03:04.101Z,1026.92
2018-09-25T07:04:04.049Z,1026.93
2018-09-25T07:05:03.994Z,1026.92
2018-09-25T07:06:03.939Z,1026.96
2018-09-25T07:07:03.908Z,1026.92
2018-09-25T07:08:03.834Z,1026.93
2018-09-25T07:09:03.780Z,1026.99
2018-09-25T07:10:03.910Z,1027.03
2018-09-25T07:11:03.679Z,1027.00
2018-09-25T07:12:03.648Z,1027.00
2018-09-25T07:13:03.566Z,1027.02
2018-09-25T07:14:03.515Z,1027.00
2018-09-25T07:15:03.465Z,1027.02
2018-09-25T07:16:03.409Z,1026.99
2018-09-25T07:17:03.381Z,1027.01
2018-09-25T07:18:03.365Z,1027.03
2018-09-25T07:19:03.251Z,1027.02
2018-09-25T07:20:03.197Z,1027.05
2018-09-25T07:21:03.145Z,1027.01
2018-09-25T07:22:03.128Z,1027.05
2018-09-25T07:23:03.035Z,1027.09
2018-09-25T07:24:02.988Z,1027.08
2018-09-25T07:25:03.025Z,1027.14
2018-09-25T07:26:02.907Z,1027.17
2018-09-25T07:27:02.855Z,1027.17
2018-09-25T07:28:02.775Z,1027.17
2018-09-25T07:29:02.718Z,1027.13
2018-09-25T07:30:02.675Z,1027.19
2018-09-25T07:31:02.669Z,1027.14
2018-09-25T07:32:02.585Z,1027.12
2018-09-25T07:33:02.510Z,1027.15
2018-09-25T07:34:02.460Z,1027.15
2018-09-25T07:35:02.403Z,1027.16
2018-09-25T07:36:02.347Z,1027.15
2018-09-25T07:37:02.321Z,1027.21
2018-09-25T07:38:02.249Z,1027.23
2018-09-25T07:39:02.195Z,1027.21
2018-09-25T07:40:02.152Z,1027.24
2018-09-25T07:41:02.094Z,1027.25
2018-09-25T07:42:02.063Z,1027.26
2018-09-25T07:43:01.980Z,1027.29
2018-09-25T07:44:01.929Z,1027.28
2018-09-25T07:45:01.876Z,1027.28
2018-09-25T07:46:01.825Z,1027.31
2018-09-25T07:47:01.794Z,1027.30
2018-09-25T07:48:01.774Z,1027.31
2018-09-25T07:49:01.666Z,1027.30
2018-09-25T07:50:01.614Z,1027.28
2018-09-25T07:51:01.562Z,1027.27
2018-09-25T07:52:01.532Z,1027.24
2018-09-25T07:53:01.459Z,1027.31
2018-09-25T07:54:01.405Z,1027.31
2018-09-25T07:55:01.353Z,1027.35
2018-09-25T07:56:01.298Z,1027.34
2018-09-25T07:57:01.269Z,1027.38
2018-09-25T07:58:01.196Z,1027.37
2018-09-25T07:59:01.146Z,1027.39
2018-09-25T08:00:01.091Z,1027.37
2018-09-25T08:01:01.034Z,1027.41
2018-09-25T08:02:01.007Z,1027.43
2018-09-25T08:03:00.965Z,1027.43
2018-09-25T08:04:00.878Z,1027.47
2018-09-25T08:05:00.827Z,1027.50
2018-09-25T08:06:00.774Z,1027.48
2018-09-25T08:07:00.761Z,1027.48
2018-09-25T08:08:00.676Z,1027.50
2018-09-25T08:09:00.636Z,1027.50
2018-09-25T08:10:00.569Z,1027.52
2018-09-25T08:11:00.514Z,1027.55
2018-09-25T08:12:00.462Z,1027.58
2018-09-25T08:13:00.444Z,1027.64
2018-09-25T08:14:00.358Z,1027.61
2018-09-25T08:15:00.309Z,1027.58
2018-09-25T08:16:00.261Z,1027.62
2018-09-25T08:17:00.206Z,1027.59
2018-09-25T08:18:00.172Z,1027.59
2018-09-25T08:19:00.103Z,1027.57
2018-09-25T08:20:00.046Z,1027.61
2018-09-25T08:20:59.991Z,1027.63
2018-09-25T08:21:59.943Z,1027.63
2018-09-25T08:22:59.915Z,1027.65
2018-09-25T08:23:59.864Z,1027.64
2018-09-25T08:24:59.784Z,1027.64
2018-09-25T08:25:59.737Z,1027.68
2018-09-25T08:26:59.683Z,1027.67
2018-09-25T08:27:59.655Z,1027.67
2018-09-25T08:28:59.584Z,1027.69
2018-09-25T08:29:59.534Z,1027.69
2018-09-25T08:30:59.481Z,1027.71
2018-09-25T08:31:59.425Z,1027.73
2018-09-25T08:32:59.406Z,1027.75
2018-09-25T08:33:59.350Z,1027.75
2018-09-25T08:34:59.329Z,1027.74
2018-09-25T08:35:59.219Z,1027.79
2018-09-25T08:36:59.165Z,1027.79
2018-09-25T08:37:59.138Z,1027.82
2018-09-25T08:38:59.136Z,1027.83
2018-09-25T08:39:59.009Z,1027.81
2018-09-25T08:40:58.962Z,1027.84
2018-09-25T08:41:58.908Z,1027.82
2018-09-25T08:42:58.879Z,1027.82
2018-09-25T08:43:58.811Z,1027.84
2018-09-25T08:44:58.795Z,1027.84
2018-09-25T08:45:58.789Z,1027.86
2018-09-25T08:46:58.650Z,1027.85
2018-09-25T08:47:58.629Z,1027.86
2018-09-25T08:48:58.551Z,1027.88
2018-09-25T08:49:58.494Z,1027.88
2018-09-25T08:50:58.450Z,1027.90
2018-09-25T08:51:58.394Z,1027.91
2018-09-25T08:52:58.371Z,1027.93
2018-09-25T08:54:06.092Z,1027.95
2018-09-25T08:54:58.241Z,1027.99
2018-09-25T08:55:58.192Z,1027.97
2018-09-25T08:56:58.133Z,1027.95
2018-09-25T08:57:58.103Z,1028.00
2018-09-25T08:58:58.029Z,1028.03
2018-09-25T08:59:57.982Z,1027.99
2018-09-25T09:00:58.062Z,1028.03
2018-09-25T09:01:57.880Z,1028.03
2018-09-25T09:02:57.856Z,1028.05
2018-09-25T09:03:57.776Z,1028.06
2018-09-25T09:04:57.722Z,1028.09
2018-09-25T09:05:57.669Z,1028.16
2018-09-25T09:06:57.619Z,1028.19
2018-09-25T09:07:57.593Z,1028.17
2018-09-25T09:08:57.520Z,1028.22
2018-09-25T09:09:57.472Z,1028.21
2018-09-25T09:10:57.419Z,1028.24
2018-09-25T09:11:57.363Z,1028.23
2018-09-25T09:12:57.340Z,1028.21
2018-09-25T09:13:57.261Z,1028.22
2018-09-25T09:14:57.216Z,1028.22
2018-09-25T09:15:57.158Z,1028.18
2018-09-25T09:16:57.107Z,1028.18
2018-09-25T09:17:57.097Z,1028.15
2018-09-25T09:18:57.006Z,1028.15
2018-09-25T09:19:56.964Z,1028.14
2018-09-25T09:20:56.912Z,1028.14
2018-09-25T09:21:56.856Z,1028.11
2018-09-25T09:22:56.807Z,1028.14
2018-09-25T09:23:56.784Z,1028.15
2018-09-25T09:24:56.703Z,1028.16
2018-09-25T09:25:56.654Z,1028.15
2018-09-25T09:26:56.673Z,1028.14
2018-09-25T09:27:56.552Z,1028.15
2018-09-25T09:28:56.526Z,1028.17
2018-09-25T09:29:56.451Z,1028.17
2018-09-25T09:30:56.406Z,1028.15
2018-09-25T09:31:56.353Z,1028.19
2018-09-25T09:32:56.307Z,1028.17
2018-09-25T09:33:56.288Z,1028.16
2018-09-25T09:34:56.199Z,1028.16
2018-09-25T09:35:56.157Z,1028.15
2018-09-25T09:36:56.103Z,1028.16
2018-09-25T09:37:56.045Z,1028.16
2018-09-25T09:38:56.030Z,1028.17
2018-09-25T09:39:55.951Z,1028.19
2018-09-25T09:40:55.914Z,1028.21
2018-09-25T09:41:56.000Z,1028.14
2018-09-25T09:42:55.796Z,1028.13
2018-09-25T09:43:55.777Z,1028.11
2018-09-25T09:44:55.699Z,1028.11
2018-09-25T09:45:55.648Z,1028.11
2018-09-25T09:46:55.597Z,1028.07
2018-09-25T09:47:55.549Z,1028.05
2018-09-25T09:48:55.521Z,1028.05
2018-09-25T09:49:55.446Z,1028.01
2018-09-25T09:50:55.402Z,1028.00
2018-09-25T09:51:55.361Z,1027.96
2018-09-25T09:52:55.304Z,1027.96
2018-09-25T09:53:55.305Z,1027.95
2018-09-25T09:54:55.201Z,1027.95
2018-09-25T09:55:55.148Z,1027.94
2018-09-25T09:56:55.095Z,1027.97
2018-09-25T09:57:55.050Z,1027.97
2018-09-25T09:58:55.035Z,1027.99
2018-09-25T09:59:54.946Z,1027.99
2018-09-25T10:00:54.904Z,1028.01
2018-09-25T10:01:54.847Z,1028.03
2018-09-25T10:02:54.795Z,1028.08
2018-09-25T10:03:54.745Z,1028.06
2018-09-25T10:04:54.716Z,1028.06
2018-09-25T10:05:54.645Z,1028.04
2018-09-25T10:06:54.704Z,1028.05
2018-09-25T10:07:54.544Z,1028.04
2018-09-25T10:08:54.510Z,1028.05
2018-09-25T10:09:54.468Z,1028.05
2018-09-25T10:10:54.396Z,1028.02
2018-09-25T10:11:54.351Z,1028.02
2018-09-25T10:12:54.301Z,1027.98
2018-09-25T10:13:54.247Z,1027.97
2018-09-25T10:14:54.219Z,1028.05
2018-09-25T10:15:54.145Z,1028.04
2018-09-25T10:16:54.097Z,1028.01
2018-09-25T10:17:54.042Z,1028.05
2018-09-25T10:18:54.021Z,1028.04
2018-09-25T10:19:53.969Z,1028.05
2018-09-25T10:20:53.891Z,1028.06
2018-09-25T10:21:53.844Z,1028.08
2018-09-25T10:22:53.795Z,1028.05
2018-09-25T10:23:53.746Z,1028.04
2018-09-25T10:24:53.715Z,1028.03
2018-09-25T10:25:53.644Z,1028.03
2018-09-25T10:26:53.594Z,1028.01
2018-09-25T10:27:53.545Z,1028.01
2018-09-25T10:28:53.499Z,1027.99
2018-09-25T10:29:53.468Z,1028.02
2018-09-25T10:30:53.391Z,1027.97
2018-09-25T10:31:53.346Z,1027.98
2018-09-25T10:32:53.293Z,1027.97
2018-09-25T10:33:53.291Z,1027.96
2018-09-25T10:34:53.220Z,1027.94
2018-09-25T10:35:53.142Z,1028.01
2018-09-25T10:36:53.095Z,1027.96
2018-09-25T10:37:53.043Z,1027.97
2018-09-25T10:38:52.993Z,1027.98
2018-09-25T10:39:52.966Z,1028.02
2018-09-25T10:40:52.932Z,1028.00
2018-09-25T10:41:52.845Z,1027.98
2018-09-25T10:42:52.794Z,1028.01
2018-09-25T10:43:52.738Z,1028.00
2018-09-25T10:44:52.718Z,1027.96
2018-09-25T10:45:52.643Z,1027.95
2018-09-25T10:46:52.596Z,1027.98
2018-09-25T10:47:52.541Z,1027.94
2018-09-25T10:48:52.491Z,1027.91
2018-09-25T10:49:52.495Z,1027.91
2018-09-25T10:50:52.394Z,1027.91
2018-09-25T10:51:52.338Z,1027.89
2018-09-25T10:52:52.291Z,1027.90
2018-09-25T10:53:52.240Z,1027.86
2018-09-25T10:54:52.215Z,1027.89
2018-09-25T10:55:52.227Z,1027.87
2018-09-25T10:56:52.095Z,1027.84
2018-09-25T10:57:52.042Z,1027.87
2018-09-25T10:58:51.995Z,1027.87
2018-09-25T10:59:51.976Z,1027.86
2018-09-25T11:00:51.889Z,1027.79
2018-09-25T11:01:51.844Z,1027.79
2018-09-25T11:02:51.843Z,1027.81
2018-09-25T11:03:51.739Z,1027.81
2018-09-25T11:04:51.733Z,1027.81
2018-09-25T11:05:51.645Z,1027.85
2018-09-25T11:06:51.590Z,1027.86
2018-09-25T11:07:51.547Z,1027.84
2018-09-25T11:08:51.504Z,1027.89
2018-09-25T11:09:51.441Z,1027.87
2018-09-25T11:10:51.416Z,1027.88
2018-09-25T11:11:51.345Z,1027.87
2018-09-25T11:12:51.297Z,1027.88
2018-09-25T11:13:51.240Z,1027.89
2018-09-25T11:14:51.193Z,1027.89
2018-09-25T11:15:51.163Z,1027.90
2018-09-25T11:16:51.094Z,1027.93
2018-09-25T11:17:51.069Z,1027.98
2018-09-25T11:18:51.039Z,1027.96
2018-09-25T11:19:50.956Z,1028.00
2018-09-25T11:20:50.911Z,1027.96
2018-09-25T11:21:50.846Z,1027.97
2018-09-25T11:22:50.792Z,1027.93
2018-09-25T11:23:50.744Z,1027.95
2018-09-25T11:24:50.688Z,1027.93
2018-09-25T11:25:50.668Z,1027.93
2018-09-25T11:26:50.592Z,1027.88
2018-09-25T11:27:50.540Z,1027.92
2018-09-25T11:28:50.493Z,1027.94
2018-09-25T11:29:50.443Z,1027.92
2018-09-25T11:30:50.417Z,1027.88
2018-09-25T11:31:50.342Z,1027.92
2018-09-25T11:32:50.294Z,1027.95
2018-09-25T11:33:50.248Z,1027.95
2018-09-25T11:34:50.190Z,1027.97
2018-09-25T11:35:50.172Z,1027.97
2018-09-25T11:36:50.088Z,1027.90
2018-09-25T11:37:50.041Z,1027.89
2018-09-25T11:38:49.993Z,1027.89
2018-09-25T11:39:49.940Z,1027.85
2018-09-25T11:40:49.963Z,1027.84
2018-09-25T11:41:49.839Z,1027.85
2018-09-25T11:42:49.796Z,1027.87
2018-09-25T11:43:49.739Z,1027.88
2018-09-25T11:44:49.697Z,1027.93
2018-09-25T11:45:49.699Z,1027.91
2018-09-25T11:46:49.726Z,1027.88
2018-09-25T11:47:49.542Z,1027.84
2018-09-25T11:48:49.492Z,1027.81
2018-09-25T11:49:49.447Z,1027.84
2018-09-25T11:50:49.419Z,1027.81
2018-09-25T11:51:49.348Z,1027.76
2018-09-25T11:52:49.293Z,1027.75
2018-09-25T11:53:49.248Z,1027.76
2018-09-25T11:54:49.193Z,1027.78
2018-09-25T11:55:49.167Z,1027.77
2018-09-25T11:56:49.088Z,1027.71
2018-09-25T11:57:49.047Z,1027.71
2018-09-25T11:58:49.001Z,1027.70
2018-09-25T11:59:48.945Z,1027.68
2018-09-25T12:00:48.915Z,1027.68
2018-09-25T12:01:48.843Z,1027.71
2018-09-25T12:02:48.799Z,1027.69
2018-09-25T12:03:48.743Z,1027.70
2018-09-25T12:04:48.690Z,1027.69